ΕΜΥ, Εθνική Μετεωρολογική Υπηρεσία - Δελτία Καιρού, Προγνώσεις

ΑΕΡΟΝΑΥΤΙΛΙΑ

GREEK AIRPORTS CODES

LGAV 261020Z 10015KT 9999 SCT015 BKN030 15/11 Q1006 RMK BKN080 NOSIG=

EUROPEAN AIRPORTS CODES

LFPO 261000Z 08007KT 9999 BKN006 BKN030 09/08 Q0995 NOSIG=